Time;durP1;ratioP1;P1;durP2;ratioP2;P2;SDS_P1;SDS_P2;PMS_P1;PMS_P2;Temp;Humidity;BMP_temperature;BMP_pressure;BME280_temperature;BME280_humidity;BME280_pressure;Samples;Min_cycle;Max_cycle;Signal;HPM_P1;HPM_P2
2024/02/13 00:00:58;;;;;;;14.40;6.20;;;;;;;1.01;68.38;99112.13;4972044;28;20077;-51
2024/02/13 00:03:25;;;;;;;8.20;5.15;;;;;;;1.23;68.39;99149.53;5006762;28;20037;-51
2024/02/13 00:05:54;;;;;;;11.10;6.00;;;;;;;1.26;68.36;99155.50;4988216;28;20144;-51
2024/02/13 00:08:21;;;;;;;11.30;4.90;;;;;;;1.07;68.35;99118.06;4998672;28;20073;-52
2024/02/13 00:10:47;;;;;;;14.25;6.00;;;;;;;1.21;68.77;99141.88;4992600;28;20514;-50
2024/02/13 00:13:20;;;;;;;10.18;5.60;;;;;;;1.21;68.38;99151.25;4988252;28;20108;-54
2024/02/13 00:15:50;;;;;;;10.20;5.70;;;;;;;1.16;68.68;99153.84;5002594;28;20049;-51
2024/02/13 00:18:18;;;;;;;9.43;5.45;;;;;;;1.11;68.80;99160.69;4985964;28;20073;-51
2024/02/13 00:20:45;;;;;;;12.68;6.07;;;;;;;1.12;68.83;99161.56;4985626;28;20066;-47
2024/02/13 00:23:12;;;;;;;9.10;4.93;;;;;;;1.14;68.80;99154.72;5001690;28;20611;-51
2024/02/13 00:25:43;;;;;;;11.05;5.10;;;;;;;1.10;68.51;99163.28;4969928;28;20143;-48
2024/02/13 00:28:09;;;;;;;16.40;5.57;;;;;;;0.87;68.51;99126.69;4986007;28;20057;-52
2024/02/13 00:30:35;;;;;;;13.23;5.95;;;;;;;1.11;68.30;99158.13;5004261;28;20100;-48
2024/02/13 00:33:21;;;;;;;8.07;4.85;;;;;;;1.14;67.88;99164.97;5005058;28;20257;-51
2024/02/13 00:36:07;;;;;;;10.02;4.95;;;;;;;1.11;67.71;99168.38;5009184;28;20583;-50
2024/02/13 00:38:34;;;;;;;9.77;5.07;;;;;;;0.94;67.66;99147.16;4976415;28;20045;-50
2024/02/13 00:41:04;;;;;;;9.57;4.75;;;;;;;1.08;67.97;99168.41;5009715;28;20038;-49
2024/02/13 00:43:31;;;;;;;10.45;4.95;;;;;;;1.04;67.56;99171.84;4992915;28;20891;-47
2024/02/13 00:45:58;;;;;;;11.48;4.97;;;;;;;0.99;67.80;99163.34;4988698;28;20091;-52
2024/02/13 00:48:26;;;;;;;10.43;4.78;;;;;;;0.84;67.54;99136.06;4972305;28;20042;-52
2024/02/13 00:50:52;;;;;;;9.82;4.72;;;;;;;0.86;67.38;99151.44;4988881;28;20046;-46
2024/02/13 00:53:20;;;;;;;9.73;4.50;;;;;;;1.02;67.40;99188.03;4973177;28;20042;-50
2024/02/13 00:55:47;;;;;;;9.73;4.40;;;;;;;0.97;67.22;99187.22;4967193;28;20069;-51
2024/02/13 00:58:13;;;;;;;12.65;5.78;;;;;;;0.78;67.18;99182.19;4988837;28;20048;-49
2024/02/13 01:00:39;;;;;;;11.73;5.40;;;;;;;0.52;67.26;99145.59;4983601;28;20046;-50
2024/02/13 01:03:06;;;;;;;14.90;6.28;;;;;;;0.87;67.29;99199.19;4957252;28;20109;-47
2024/02/13 01:05:37;;;;;;;11.23;5.75;;;;;;;0.87;67.48;99194.06;4966107;28;20133;-48
2024/02/13 01:08:03;;;;;;;11.05;5.45;;;;;;;0.83;67.29;99205.19;5008026;28;20045;-50
2024/02/13 01:10:31;;;;;;;10.20;5.20;;;;;;;0.80;66.91;99202.63;4991867;28;20038;-48
2024/02/13 01:12:59;;;;;;;12.07;5.18;;;;;;;0.78;66.98;99204.34;4959718;28;20065;-48
2024/02/13 01:15:26;;;;;;;12.95;5.50;;;;;;;0.76;67.09;99206.91;4991239;28;20038;-53
2024/02/13 01:17:54;;;;;;;14.18;6.28;;;;;;;0.73;66.40;99212.00;4957887;28;20045;-51
2024/02/13 01:20:24;;;;;;;14.63;5.72;;;;;;;0.30;66.00;99152.47;4971857;28;20066;-51
2024/02/13 01:22:53;;;;;;;13.63;6.00;;;;;;;0.66;65.85;99215.47;4988456;28;20077;-47
2024/02/13 01:25:23;;;;;;;13.25;5.55;;;;;;;0.43;65.97;99191.63;4995479;28;20100;-51
2024/02/13 01:27:49;;;;;;;15.55;6.10;;;;;;;0.58;66.00;99217.16;4958876;28;20501;-49
2024/02/13 01:30:15;;;;;;;14.63;5.50;;;;;;;0.44;65.56;99193.34;5003490;28;20057;-47
2024/02/13 01:32:41;;;;;;;18.85;6.38;;;;;;;0.47;65.27;99218.91;5007723;28;20037;-49
2024/02/13 01:35:09;;;;;;;13.15;6.10;;;;;;;0.43;65.64;99225.72;4972421;28;20073;-45
2024/02/13 01:37:37;;;;;;;15.93;7.25;;;;;;;0.40;65.63;99212.94;4971977;28;20183;-50
2024/02/13 01:40:06;;;;;;;15.40;5.85;;;;;;;0.31;65.71;99225.75;4987090;28;20050;-46
2024/02/13 01:42:37;;;;;;;12.85;5.53;;;;;;;0.30;65.34;99225.75;4987908;28;20068;-49
2024/02/13 01:45:06;;;;;;;13.48;5.63;;;;;;;0.09;65.43;99202.75;4956053;28;20045;-53
2024/02/13 01:47:48;;;;;;;15.02;7.00;;;;;;;0.28;65.31;99228.28;4960158;28;20035;-52
2024/02/13 01:50:18;;;;;;;14.10;6.30;;;;;;;0.32;65.45;99229.13;4994393;28;20038;-49
2024/02/13 01:52:45;;;;;;;15.63;6.57;;;;;;;0.35;65.15;99245.34;4970312;28;20052;-53
2024/02/13 01:55:12;;;;;;;15.88;6.68;;;;;;;0.31;65.05;99240.25;4990335;28;20590;-51
2024/02/13 01:57:40;;;;;;;14.32;5.97;;;;;;;0.27;64.98;99239.38;4974222;28;20037;-48
2024/02/13 02:00:13;;;;;;;17.58;6.70;;;;;;;0.29;65.20;99234.25;4964380;28;20140;-48
2024/02/13 02:02:44;;;;;;;13.43;5.95;;;;;;;0.27;64.77;99238.50;4999446;28;20046;-54
2024/02/13 02:05:13;;;;;;;17.20;6.57;;;;;;;0.25;65.10;99251.31;4973877;28;20129;-55
2024/02/13 02:07:59;;;;;;;;;;;;;;;0.18;64.90;99253.84;4980342;28;20101;-47
2024/02/13 02:10:25;;;;;;;15.20;6.25;;;;;;;0.10;65.19;99253.88;4961218;28;19921;-53
2024/02/13 02:13:01;;;;;;;16.88;7.03;;;;;;;0.06;64.61;99258.94;4979639;28;20046;-50
2024/02/13 02:15:36;;;;;;;15.60;6.00;;;;;;;-0.01;65.09;99258.97;4957315;28;20163;-50
2024/02/13 02:18:04;;;;;;;19.17;7.30;;;;;;;-0.05;64.97;99251.28;4991678;28;20458;-53
2024/02/13 02:20:32;;;;;;;17.00;7.40;;;;;;;-0.02;65.47;99258.97;4988260;28;20072;-51
2024/02/13 02:22:58;;;;;;;13.27;6.28;;;;;;;-0.35;65.48;99205.25;4971294;28;20054;-46
2024/02/13 02:25:24;;;;;;;17.95;6.90;;;;;;;-0.02;65.29;99281.97;4972143;28;20082;-50
2024/02/13 02:28:10;;;;;;;13.80;6.32;;;;;;;-0.01;64.99;99281.97;4991919;28;20430;-51
2024/02/13 02:30:51;;;;;;;20.67;6.95;;;;;;;0.00;65.23;99288.75;4990526;28;20192;-50
2024/02/13 02:33:17;;;;;;;19.77;7.90;;;;;;;0.07;65.35;99288.78;5004413;28;20045;-51
2024/02/13 02:35:44;;;;;;;16.58;6.45;;;;;;;0.09;64.96;99304.97;5004754;28;20106;-47
2024/02/13 02:38:13;;;;;;;14.52;6.28;;;;;;;0.10;65.11;99306.69;4990447;28;20053;-52
2024/02/13 02:40:43;;;;;;;16.23;6.90;;;;;;;0.08;65.47;99306.66;5001042;28;20053;-48
2024/02/13 02:43:10;;;;;;;15.40;7.10;;;;;;;0.06;65.20;99317.72;4996162;28;20053;-46
2024/02/13 02:45:37;;;;;;;16.20;7.55;;;;;;;0.12;65.25;99318.59;5006318;28;20041;-47
2024/02/13 02:48:04;;;;;;;16.67;6.90;;;;;;;0.11;64.77;99327.09;4970860;28;20113;-51
2024/02/13 02:50:34;;;;;;;17.10;6.82;;;;;;;-0.16;65.24;99294.69;4973968;28;20041;-47
2024/02/13 02:53:01;;;;;;;17.67;6.57;;;;;;;0.02;65.06;99329.66;5007131;28;20072;-50
2024/02/13 02:55:29;;;;;;;14.93;6.65;;;;;;;-0.18;65.25;99293.00;4989735;28;20070;-52
2024/02/13 02:57:56;;;;;;;16.38;6.95;;;;;;;0.02;65.35;99326.25;4987726;28;20429;-51
2024/02/13 03:00:23;;;;;;;17.08;7.07;;;;;;;0.03;65.38;99331.38;4974479;28;20128;-49
2024/02/13 03:03:11;;;;;;;17.52;7.68;;;;;;;-0.17;65.25;99297.25;4987786;28;20048;-47
2024/02/13 03:05:38;;;;;;;17.27;7.13;;;;;;;0.02;65.68;99321.13;4971053;28;20078;-49
2024/02/13 03:08:07;;;;;;;19.80;7.65;;;;;;;-0.02;65.91;99330.50;4988444;28;20404;-54
2024/02/13 03:10:35;;;;;;;20.08;7.45;;;;;;;-0.04;65.96;99330.50;4970846;28;20042;-50
2024/02/13 03:13:04;;;;;;;18.50;7.25;;;;;;;0.02;65.72;99324.53;5003060;28;20046;-48
2024/02/13 03:15:30;;;;;;;18.45;7.18;;;;;;;-0.05;65.74;99315.16;5007458;28;20049;-47
2024/02/13 03:17:57;;;;;;;17.02;6.82;;;;;;;-0.11;65.24;99300.69;4964388;28;20081;-47
2024/02/13 03:20:24;;;;;;;19.15;7.10;;;;;;;0.09;65.42;99331.38;4987160;28;20042;-50
2024/02/13 03:22:59;;;;;;;16.70;6.75;;;;;;;0.12;64.86;99331.38;4987869;28;20073;-48
2024/02/13 03:25:26;;;;;;;17.88;7.28;;;;;;;0.09;65.34;99335.63;4970416;28;20619;-49
2024/02/13 03:28:13;;;;;;;16.15;6.28;;;;;;;0.08;64.50;99344.16;4973214;28;20034;-48
2024/02/13 03:30:45;;;;;;;13.77;6.15;;;;;;;0.02;64.62;99342.44;5004474;28;20124;-50
2024/02/13 03:33:11;;;;;;;15.50;6.10;;;;;;;-0.01;64.38;99345.00;4988940;28;20433;-48
2024/02/13 03:35:39;;;;;;;20.15;7.57;;;;;;;-0.44;64.30;99283.56;5006652;28;20417;-49
2024/02/13 03:38:09;;;;;;;18.92;7.32;;;;;;;-0.05;64.18;99351.78;5005605;28;20041;-51
2024/02/13 03:40:35;;;;;;;17.85;6.68;;;;;;;-0.13;63.93;99334.72;5004300;28;20046;-47
2024/02/13 03:43:02;;;;;;;19.33;7.78;;;;;;;-0.27;63.98;99313.41;4973721;28;20120;-48
2024/02/13 03:45:29;;;;;;;18.58;7.40;;;;;;;-0.06;64.10;99351.78;4969962;28;20042;-50
2024/02/13 03:48:16;;;;;;;20.75;7.55;;;;;;;-0.13;64.08;99347.50;4998461;28;20552;-50
2024/02/13 03:50:43;;;;;;;19.35;6.93;;;;;;;-0.15;63.93;99350.03;4992542;28;20046;-50
2024/02/13 03:53:10;;;;;;;16.45;6.70;;;;;;;-0.09;63.82;99351.75;4972699;28;20100;-51
2024/02/13 03:55:36;;;;;;;17.30;6.95;;;;;;;-0.24;63.89;99329.59;4986217;28;20098;-50
2024/02/13 03:58:03;;;;;;;17.17;6.80;;;;;;;-0.13;64.02;99361.13;4978052;28;20060;-50
2024/02/13 04:00:32;;;;;;;20.83;7.43;;;;;;;-0.15;63.77;99359.41;4986174;28;20124;-51
2024/02/13 04:02:59;;;;;;;16.42;7.28;;;;;;;-0.17;64.08;99359.44;4996327;28;20800;-53
2024/02/13 04:05:25;;;;;;;16.67;6.55;;;;;;;-0.17;63.79;99361.97;4998268;28;20418;-53
2024/02/13 04:07:56;;;;;;;13.98;6.45;;;;;;;-0.39;63.91;99327.00;5000079;28;20828;-47
2024/02/13 04:10:23;;;;;;;14.98;6.60;;;;;;;-0.19;63.93;99373.03;4987950;28;20050;-51
2024/02/13 04:13:08;;;;;;;20.35;8.43;;;;;;;-0.37;63.91;99338.06;4972460;28;20038;-51
2024/02/13 04:15:35;;;;;;;17.67;7.40;;;;;;;-0.52;63.94;99326.06;4975451;28;20038;-46
2024/02/13 04:18:07;;;;;;;13.77;6.45;;;;;;;-0.49;64.42;99346.53;4994699;28;20038;-46
2024/02/13 04:20:39;;;;;;;17.92;7.63;;;;;;;-0.31;64.32;99384.03;5007141;28;20074;-53
2024/02/13 04:23:06;;;;;;;13.35;5.60;;;;;;;-0.32;64.21;99386.59;5005467;28;20056;-48
2024/02/13 04:25:36;;;;;;;15.10;6.28;;;;;;;-0.60;64.56;99352.44;5001967;28;20041;-52
2024/02/13 04:28:03;;;;;;;17.73;6.93;;;;;;;-0.40;64.73;99398.47;5002822;28;20054;-47
2024/02/13 04:30:31;;;;;;;16.20;7.05;;;;;;;-0.38;64.95;99395.09;4995943;28;20137;-56
2024/02/13 04:33:00;;;;;;;16.95;7.07;;;;;;;-0.34;64.83;99404.47;4959367;28;20754;-50
2024/02/13 04:35:29;;;;;;;18.85;7.13;;;;;;;-0.30;64.51;99411.28;4978363;28;20054;-47
2024/02/13 04:37:55;;;;;;;17.75;7.30;;;;;;;-0.52;65.03;99376.28;4998544;28;20474;-47
2024/02/13 04:40:21;;;;;;;15.45;6.85;;;;;;;-0.53;64.92;99385.66;4962801;28;20081;-51
2024/02/13 04:43:08;;;;;;;14.15;6.75;;;;;;;-0.64;64.76;99386.44;4991134;28;20073;-52
2024/02/13 04:45:37;;;;;;;17.20;6.30;;;;;;;-0.48;65.07;99422.28;4980064;28;20091;-42
2024/02/13 04:48:04;;;;;;;14.70;5.28;;;;;;;-0.50;64.67;99430.75;4982878;28;20037;-49
2024/02/13 04:50:33;;;;;;;17.35;6.20;;;;;;;-0.88;64.81;99380.34;4977995;28;20042;-49
2024/02/13 04:53:02;;;;;;;13.23;6.15;;;;;;;-0.56;64.55;99436.69;4971434;28;20060;-49
2024/02/13 04:55:29;;;;;;;15.68;6.88;;;;;;;-0.54;64.67;99439.25;4951434;28;20426;-54
2024/02/13 04:57:57;;;;;;;14.43;6.32;;;;;;;-0.50;64.47;99446.94;4987272;28;20037;-55
2024/02/13 05:00:28;;;;;;;13.65;6.47;;;;;;;-0.51;64.49;99452.03;4994217;28;20051;-52
2024/02/13 05:08:29;;;;;;;16.05;6.03;;;;;;;-0.54;64.92;99467.34;4994700;28;20047;-53
2024/02/13 05:10:56;;;;;;;21.73;7.30;;;;;;;-0.71;64.92;99441.69;4981068;28;20096;-49
2024/02/13 05:13:26;;;;;;;17.98;6.28;;;;;;;-0.89;65.21;99414.34;4985170;28;20072;-51
2024/02/13 05:15:54;;;;;;;13.35;6.32;;;;;;;-0.76;65.37;99432.31;4996643;28;20137;-53
2024/02/13 05:18:20;;;;;;;21.05;6.28;;;;;;;-0.53;65.16;99471.63;4996249;28;20033;-50
2024/02/13 05:20:53;;;;;;;22.35;7.80;;;;;;;-0.55;65.57;99469.03;4992515;28;20050;-49
2024/02/13 05:23:20;;;;;;;18.40;6.90;;;;;;;-0.73;65.28;99453.59;4997380;28;20042;-54
2024/02/13 05:25:48;;;;;;;19.65;7.00;;;;;;;-0.79;65.63;99439.94;4994340;28;20128;-48
2024/02/13 05:28:20;;;;;;;17.77;7.13;;;;;;;-0.58;66.64;99481.78;4979601;28;20049;-50
2024/02/13 05:30:46;;;;;;;16.90;7.10;;;;;;;-0.60;66.69;99483.47;4997577;28;20034;-51
2024/02/13 05:33:15;;;;;;;13.85;7.25;;;;;;;-0.61;67.07;99489.41;4966159;28;20073;-48
2024/02/13 05:35:44;;;;;;;17.15;6.68;;;;;;;-0.79;66.94;99455.25;4964927;28;20034;-48
2024/02/13 05:38:11;;;;;;;18.35;6.82;;;;;;;-0.53;67.15;99499.69;5001215;28;20073;-47
2024/02/13 05:40:42;;;;;;;17.35;7.45;;;;;;;-0.52;67.09;99504.78;4967031;28;20041;-50
2024/02/13 05:43:11;;;;;;;18.25;6.97;;;;;;;-0.50;67.34;99508.22;5003635;28;20096;-49
2024/02/13 05:45:37;;;;;;;15.13;6.97;;;;;;;-0.49;67.45;99503.97;4967773;28;20042;-55
2024/02/13 05:48:09;;;;;;;23.63;7.72;;;;;;;-0.48;67.99;99505.69;4995493;28;20038;-52
2024/02/13 05:50:36;;;;;;;23.95;7.90;;;;;;;-0.47;68.03;99517.59;4962495;28;20033;-48
2024/02/13 05:53:04;;;;;;;19.10;7.80;;;;;;;-0.50;67.86;99513.31;5004563;28;20041;-49
2024/02/13 05:55:30;;;;;;;19.80;7.68;;;;;;;-0.69;67.79;99490.22;4983078;28;20052;-55
2024/02/13 05:57:57;;;;;;;18.85;7.57;;;;;;;-0.53;67.93;99531.19;4984571;28;20038;-53
2024/02/13 06:00:27;;;;;;;17.83;7.85;;;;;;;-0.62;67.58;99531.09;4976320;28;20589;-51
2024/02/13 06:02:56;;;;;;;24.58;8.15;;;;;;;-0.61;67.48;99535.38;4990436;28;20034;-50
2024/02/13 06:05:26;;;;;;;20.48;7.80;;;;;;;-0.62;67.51;99551.53;4973774;28;20089;-53
2024/02/13 06:07:52;;;;;;;17.13;7.47;;;;;;;-0.78;67.46;99515.63;4980562;28;20523;-53
2024/02/13 06:10:19;;;;;;;15.63;7.07;;;;;;;-0.56;67.20;99558.38;4975267;28;20144;-52
2024/02/13 06:12:46;;;;;;;16.10;6.38;;;;;;;-0.54;66.87;99565.22;4991452;28;20088;-49
2024/02/13 06:15:14;;;;;;;16.23;7.10;;;;;;;-0.53;67.05;99572.03;5008209;28;20514;-54
2024/02/13 06:17:43;;;;;;;14.52;6.72;;;;;;;-0.55;66.63;99571.16;4984117;28;20038;-52
2024/02/13 06:20:12;;;;;;;14.00;6.40;;;;;;;-0.56;66.21;99582.22;4950816;28;20045;-49
2024/02/13 06:22:45;;;;;;;15.38;6.30;;;;;;;-0.53;66.22;99589.06;4972118;28;20069;-54
2024/02/13 06:25:14;;;;;;;17.45;6.70;;;;;;;-0.71;65.97;99563.34;4998124;28;20041;-50
2024/02/13 06:27:43;;;;;;;19.10;7.57;;;;;;;-0.56;65.46;99596.69;5014696;28;20038;-53
2024/02/13 06:30:10;;;;;;;16.90;7.00;;;;;;;-0.49;65.82;99601.84;4996151;28;20088;-53
2024/02/13 06:32:46;;;;;;;15.95;6.55;;;;;;;-0.41;65.70;99601.91;4995911;28;20057;-49
2024/02/13 06:35:14;;;;;;;14.23;5.85;;;;;;;-0.36;65.19;99601.94;5007167;28;20135;-54
2024/02/13 06:38:01;;;;;;;15.40;6.82;;;;;;;-0.32;64.95;99611.34;4983200;28;20140;-49
2024/02/13 06:40:27;;;;;;;15.07;7.47;;;;;;;-0.30;64.91;99613.06;4992312;28;20053;-46
2024/02/13 06:42:54;;;;;;;18.00;6.57;;;;;;;-0.27;64.97;99618.22;4955115;28;20042;-46
2024/02/13 06:45:21;;;;;;;16.33;7.10;;;;;;;-0.60;64.55;99567.72;4996629;28;20042;-47
2024/02/13 06:47:47;;;;;;;16.80;6.07;;;;;;;-0.29;64.51;99627.56;4983451;28;20143;-49
2024/02/13 06:50:15;;;;;;;17.55;7.00;;;;;;;-0.31;64.01;99628.38;4964504;28;20096;-49
2024/02/13 06:52:42;;;;;;;15.98;6.90;;;;;;;-0.26;64.18;99626.75;4983075;28;20080;-53
2024/02/13 06:55:09;;;;;;;17.35;6.72;;;;;;;-0.21;64.38;99631.00;4999469;28;20049;-48
2024/02/13 06:57:50;;;;;;;17.35;6.28;;;;;;;-0.24;63.88;99636.09;4989137;28;20085;-49
2024/02/13 07:00:16;;;;;;;15.68;6.55;;;;;;;-0.27;63.74;99645.47;4991088;28;20085;-48
2024/02/13 07:02:43;;;;;;;13.55;6.10;;;;;;;-0.20;63.59;99642.09;4971714;28;20042;-52
2024/02/13 07:05:11;;;;;;;14.50;6.60;;;;;;;-0.37;63.37;99613.88;4937782;28;20038;-48
2024/02/13 07:07:39;;;;;;;18.05;6.75;;;;;;;-0.24;62.83;99640.34;4996691;28;20029;-46
2024/02/13 07:10:06;;;;;;;16.80;7.25;;;;;;;-0.32;62.96;99636.91;4963275;28;20054;-49
2024/02/13 07:12:37;;;;;;;16.13;6.38;;;;;;;-0.31;62.76;99641.13;5006750;28;20061;-52
2024/02/13 07:15:07;;;;;;;14.77;6.13;;;;;;;-0.24;62.55;99658.25;5000557;28;20064;-49
2024/02/13 07:17:34;;;;;;;15.20;6.80;;;;;;;-0.43;62.67;99617.25;4989101;28;20031;-55
2024/02/13 07:20:01;;;;;;;14.52;6.30;;;;;;;-0.20;62.55;99653.16;4995109;28;20136;-50
2024/02/13 07:22:31;;;;;;;19.13;7.03;;;;;;;-0.17;62.63;99660.88;4958536;28;20099;-51
2024/02/13 07:24:58;;;;;;;14.43;6.82;;;;;;;-0.14;62.46;99658.31;4977318;28;20082;-51
2024/02/13 07:27:25;;;;;;;17.33;6.15;;;;;;;-0.01;62.41;99666.97;4994034;28;20042;-54
2024/02/13 07:29:55;;;;;;;17.58;6.80;;;;;;;-0.02;62.25;99632.03;4994195;28;20692;-50
2024/02/13 07:32:22;;;;;;;17.00;6.95;;;;;;;0.13;61.78;99665.34;4980965;28;20045;-52
2024/02/13 07:34:48;;;;;;;15.10;6.85;;;;;;;0.08;61.57;99666.16;4992345;28;20530;-47
2024/02/13 07:37:15;;;;;;;20.00;6.53;;;;;;;0.07;61.65;99670.41;4991025;28;20375;-51
2024/02/13 07:39:41;;;;;;;15.77;7.35;;;;;;;0.13;61.68;99673.03;4972107;28;20047;-52
2024/02/13 07:42:07;;;;;;;18.63;7.15;;;;;;;0.03;61.55;99639.72;4997129;28;20399;-50
2024/02/13 07:44:36;;;;;;;15.38;6.28;;;;;;;0.06;61.02;99666.13;4994887;28;20041;-48
2024/02/13 07:47:01;;;;;;;16.88;7.22;;;;;;;0.11;61.48;99684.91;4993338;28;20095;-53
2024/02/13 07:49:30;;;;;;;17.10;6.65;;;;;;;0.16;60.93;99675.59;4979210;28;20187;-52
2024/02/13 07:51:56;;;;;;;14.40;6.75;;;;;;;0.17;60.37;99673.88;4993543;28;20620;-50
2024/02/13 07:54:25;;;;;;;17.63;7.43;;;;;;;0.13;60.49;99678.13;4998904;28;20068;-51
2024/02/13 07:56:52;;;;;;;16.38;7.75;;;;;;;-0.01;60.77;99646.50;5005694;28;20049;-50
2024/02/13 07:59:18;;;;;;;16.88;7.13;;;;;;;0.16;60.30;99664.53;5000508;28;20137;-52
2024/02/13 08:01:44;;;;;;;13.77;6.45;;;;;;;0.29;60.27;99673.97;5006825;28;20038;-47
2024/02/13 08:04:10;;;;;;;13.80;6.75;;;;;;;0.34;60.10;99683.41;5005757;28;20046;-48
2024/02/13 08:06:37;;;;;;;13.88;6.55;;;;;;;0.37;60.05;99679.97;4994667;28;20042;-49
2024/02/13 08:09:06;;;;;;;16.08;6.82;;;;;;;0.43;59.54;99683.44;4992677;28;20625;-49
2024/02/13 08:11:33;;;;;;;12.75;6.22;;;;;;;0.04;59.48;99619.28;4994389;28;20041;-48
2024/02/13 08:13:59;;;;;;;14.18;6.70;;;;;;;0.38;59.73;99687.69;4963626;28;20041;-47
2024/02/13 08:16:29;;;;;;;14.35;6.53;;;;;;;0.45;59.44;99692.84;4974527;28;20377;-46
2024/02/13 08:18:57;;;;;;;14.43;6.55;;;;;;;0.54;59.25;99695.44;4964132;28;20058;-51
2024/02/13 08:21:26;;;;;;;13.90;7.03;;;;;;;0.47;59.16;99684.34;4977174;28;20046;-45
2024/02/13 08:23:53;;;;;;;14.18;6.68;;;;;;;0.41;59.21;99689.41;4965097;28;20093;-47
2024/02/13 08:26:19;;;;;;;16.90;6.75;;;;;;;0.25;59.19;99667.16;4987398;28;20081;-48
2024/02/13 08:28:47;;;;;;;19.63;7.18;;;;;;;0.29;58.78;99663.75;4999941;28;20038;-49
2024/02/13 08:31:14;;;;;;;17.00;7.57;;;;;;;0.56;59.17;99698.88;4975388;28;20049;-49
2024/02/13 08:33:40;;;;;;;20.77;7.72;;;;;;;0.66;58.50;99687.84;4980187;28;20053;-48
2024/02/13 08:36:07;;;;;;;16.95;7.53;;;;;;;0.72;58.49;99698.13;4975849;28;20605;-50
2024/02/13 08:38:33;;;;;;;20.63;8.25;;;;;;;0.65;58.39;99696.34;4979943;28;20049;-49
2024/02/13 08:41:00;;;;;;;18.23;7.22;;;;;;;0.73;58.44;99694.72;4968495;28;20050;-50
2024/02/13 08:43:26;;;;;;;16.65;7.50;;;;;;;0.79;58.54;99671.69;4977599;28;20069;-51
2024/02/13 08:45:52;;;;;;;15.95;6.30;;;;;;;1.08;57.67;99665.00;4996776;28;20588;-48
2024/02/13 08:48:18;;;;;;;19.08;6.82;;;;;;;1.41;57.39;99702.66;4978702;28;20042;-46
2024/02/13 08:50:45;;;;;;;12.95;5.93;;;;;;;1.41;56.91;99705.22;4974115;28;20054;-48
2024/02/13 08:53:11;;;;;;;15.45;7.13;;;;;;;1.43;56.37;99708.63;4982052;28;20666;-46
2024/02/13 08:55:39;;;;;;;17.48;7.30;;;;;;;1.51;56.59;99711.22;4978303;28;20073;-44
2024/02/13 08:58:05;;;;;;;13.55;6.70;;;;;;;1.46;56.20;99713.78;4997168;28;20526;-46
2024/02/13 09:00:33;;;;;;;15.18;6.50;;;;;;;1.32;56.09;99722.25;4959662;28;20509;-46
2024/02/13 09:03:19;;;;;;;16.48;5.85;;;;;;;1.23;56.53;99712.84;4984371;28;20060;-47
2024/02/13 09:05:45;;;;;;;14.77;7.15;;;;;;;1.17;56.35;99710.25;5001861;28;20050;-50
2024/02/13 09:08:10;;;;;;;17.02;7.57;;;;;;;1.22;56.17;99719.66;4998400;28;20034;-47
2024/02/13 09:10:37;;;;;;;13.77;6.07;;;;;;;1.20;56.37;99717.97;5005046;28;20041;-53
2024/02/13 09:13:03;;;;;;;15.40;7.40;;;;;;;1.14;56.54;99715.38;5008085;28;20482;-52
2024/02/13 09:15:29;;;;;;;17.83;7.35;;;;;;;1.15;56.36;99717.91;5004573;28;20038;-46
2024/02/13 09:17:55;;;;;;;17.30;6.40;;;;;;;1.01;56.44;99690.56;4974994;28;20038;-46
2024/02/13 09:20:22;;;;;;;17.92;6.43;;;;;;;1.25;56.55;99726.50;4987176;28;20038;-51
2024/02/13 09:22:49;;;;;;;18.40;7.72;;;;;;;1.27;56.29;99735.91;4988038;28;20073;-50
2024/02/13 09:25:20;;;;;;;12.63;5.88;;;;;;;1.30;56.48;99734.22;4987986;28;20124;-46
2024/02/13 09:27:51;;;;;;;14.18;7.13;;;;;;;1.32;56.44;99733.34;5001819;28;20056;-48
2024/02/13 09:30:17;;;;;;;14.45;6.40;;;;;;;1.25;56.18;99737.63;4987737;28;20069;-47
2024/02/13 09:32:47;;;;;;;14.32;6.68;;;;;;;0.75;56.08;99678.50;5003523;28;20522;-46
2024/02/13 09:35:14;;;;;;;14.40;6.47;;;;;;;1.14;56.53;99751.22;4986616;28;20514;-47
2024/02/13 09:37:53;;;;;;;16.33;6.90;;;;;;;1.13;56.34;99752.06;4972910;28;20056;-47
2024/02/13 09:40:20;;;;;;;17.70;7.63;;;;;;;1.15;56.59;99755.50;4989196;28;20038;-47
2024/02/13 09:42:46;;;;;;;17.02;7.20;;;;;;;1.23;56.50;99757.22;4990258;28;20545;-48
2024/02/13 09:45:13;;;;;;;15.38;7.55;;;;;;;1.31;56.33;99764.91;4997337;28;20477;-47
2024/02/13 09:47:41;;;;;;;18.60;8.77;;;;;;;1.07;56.50;99739.22;4989128;28;20128;-50
2024/02/13 09:50:12;;;;;;;13.30;7.57;;;;;;;1.23;56.59;99758.94;4986584;28;20038;-45
2024/02/13 09:52:46;;;;;;;12.10;5.93;;;;;;;1.26;57.12;99761.50;4983312;28;20041;-47
2024/02/13 09:55:14;;;;;;;14.90;6.57;;;;;;;0.90;56.75;99702.44;4992846;28;20129;-48
2024/02/13 09:57:41;;;;;;;18.90;7.93;;;;;;;1.10;56.80;99736.69;4989243;28;20557;-50
2024/02/13 10:00:08;;;;;;;15.52;6.22;;;;;;;1.26;56.77;99759.78;5001349;28;20065;-48
2024/02/13 10:02:40;;;;;;;16.05;7.10;;;;;;;1.34;56.68;99772.63;4990071;28;20048;-46
2024/02/13 10:05:10;;;;;;;16.80;7.53;;;;;;;1.27;56.23;99779.44;4991688;28;20037;-46
2024/02/13 10:07:41;;;;;;;23.88;7.22;;;;;;;1.28;56.13;99776.03;4981605;28;20049;-46
2024/02/13 10:10:11;;;;;;;19.60;7.63;;;;;;;1.33;56.62;99778.59;5001645;28;20037;-52
2024/02/13 10:13:00;;;;;;;18.42;7.85;;;;;;;1.32;56.56;99770.91;5000703;28;20057;-54
2024/02/13 10:15:43;;;;;;;21.27;6.97;;;;;;;1.14;56.33;99728.19;5000983;28;20048;-46
2024/02/13 10:18:13;;;;;;;16.55;6.95;;;;;;;1.46;55.91;99774.41;4993877;28;20129;-48
2024/02/13 10:20:45;;;;;;;16.52;7.25;;;;;;;1.38;56.37;99779.47;4978264;28;20093;-48
2024/02/13 10:23:16;;;;;;;18.13;7.65;;;;;;;1.06;56.53;99740.06;4985966;28;20072;-52
2024/02/13 10:25:43;;;;;;;17.63;7.35;;;;;;;1.35;56.46;99787.16;5000993;28;20104;-48
2024/02/13 10:28:12;;;;;;;14.70;7.18;;;;;;;1.41;56.62;99799.13;4995488;28;20038;-52
2024/02/13 10:30:38;;;;;;;16.45;7.47;;;;;;;1.41;56.36;99791.47;4970458;28;20054;-52
2024/02/13 10:33:09;;;;;;;18.27;7.90;;;;;;;1.53;55.96;99797.47;4975862;28;20069;-52
2024/02/13 10:35:37;;;;;;;19.13;8.55;;;;;;;1.53;55.92;99810.28;4953577;28;20521;-48
2024/02/13 10:38:03;;;;;;;19.23;7.95;;;;;;;1.54;56.38;99814.56;5005244;28;20041;-50
2024/02/13 10:40:30;;;;;;;18.55;7.97;;;;;;;1.56;56.00;99812.88;4993520;28;20541;-49
2024/02/13 10:42:57;;;;;;;21.92;9.27;;;;;;;1.49;56.47;99805.13;4967929;28;20050;-52
2024/02/13 10:45:32;;;;;;;21.27;8.07;;;;;;;1.41;56.21;99807.69;4994959;28;20070;-54
2024/02/13 10:48:37;;;;;;;17.75;7.57;;;;;;;1.21;56.71;99789.63;4996005;28;20056;-49
2024/02/13 10:51:04;;;;;;;20.95;7.00;;;;;;;1.30;56.63;99786.28;4986183;28;20057;-48
2024/02/13 10:53:32;;;;;;;17.85;7.82;;;;;;;1.16;56.56;99770.84;5000182;28;20041;-47
2024/02/13 10:55:58;;;;;;;14.10;6.43;;;;;;;1.46;56.20;99818.81;4999321;28;20052;-49
2024/02/13 10:58:29;;;;;;;15.68;7.38;;;;;;;1.52;56.49;99823.06;4999129;28;20553;-49
2024/02/13 11:00:56;;;;;;;17.83;7.82;;;;;;;1.52;55.82;99818.81;5004238;28;20171;-48
2024/02/13 11:03:24;;;;;;;17.75;7.93;;;;;;;1.52;55.68;99813.69;5006236;28;20048;-57
2024/02/13 11:05:51;;;;;;;17.67;8.05;;;;;;;1.26;55.65;99793.06;4990929;28;20046;-47
2024/02/13 11:08:18;;;;;;;16.95;7.75;;;;;;;1.20;55.75;99782.81;4991331;28;20042;-53
2024/02/13 11:10:44;;;;;;;16.52;7.55;;;;;;;1.36;56.00;99827.25;4970521;28;20707;-47
2024/02/13 11:13:10;;;;;;;12.88;6.40;;;;;;;1.24;55.93;99822.09;4978815;28;20466;-51
2024/02/13 11:15:39;;;;;;;14.80;6.50;;;;;;;0.73;55.71;99787.66;4986268;28;20053;-48
2024/02/13 11:18:27;;;;;;;15.45;6.57;;;;;;;0.67;55.97;99812.38;4993949;28;20056;-51
2024/02/13 11:21:00;;;;;;;13.15;6.22;;;;;;;0.84;55.87;99844.03;4984452;28;20042;-49
2024/02/13 11:23:57;;;;;;;15.07;7.20;;;;;;;0.82;55.71;99841.47;4999482;28;20053;-48
2024/02/13 11:26:25;;;;;;;13.68;6.35;;;;;;;0.89;56.43;99844.91;4997009;28;20536;-53
2024/02/13 11:28:52;;;;;;;15.15;6.22;;;;;;;0.93;56.29;99853.50;4993995;28;20034;-51
2024/02/13 11:31:18;;;;;;;15.25;6.93;;;;;;;0.90;55.85;99851.75;4994882;28;20046;-52
2024/02/13 11:34:22;;;;;;;17.10;7.15;;;;;;;0.96;56.23;99856.06;4985468;28;20038;-48
2024/02/13 11:36:58;;;;;;;14.85;7.07;;;;;;;1.03;55.90;99824.53;4933499;29;20039;-49
2024/02/13 11:39:25;;;;;;;15.45;6.43;;;;;;;1.43;55.49;99852.06;4980973;28;20050;-51
2024/02/13 11:41:57;;;;;;;12.48;5.97;;;;;;;1.45;55.12;99852.94;4998611;28;20723;-53
2024/02/13 11:44:23;;;;;;;17.98;6.93;;;;;;;1.25;55.05;99799.06;4993620;28;20418;-55
2024/02/13 11:46:54;;;;;;;13.02;6.28;;;;;;;1.85;54.49;99853.09;5000135;28;20041;-48